ADDS METAR Data INFO
IDs: Format: Raw Decoded Include TAF

Data at: 1500 UTC 11 Dec 2017

KMOP 111455Z AUTO 13007KT 1SM -SN OVC007 M06/M09 A2996 RMK AO2 T10631088
KMOP 111435Z AUTO 14007KT 1 3/4SM -SN OVC009 M06/M09 A2997 RMK AO2 T10631092
KMOP 111415Z AUTO 14005KT 2SM -SN OVC011 M06/M10 A2996 RMK AO2 T10611096
KMOP 111355Z AUTO 13005KT 10SM SCT020 OVC030 M06/M10 A2996 RMK AO2 T10611100
KMOP 111335Z AUTO 15006KT 10SM OVC030 M06/M10 A2998 RMK AO2 T10611101
KMOP 111315Z AUTO 16005KT 10SM OVC032 M06/M10 A2998 RMK AO2 T10621098
KMOP 111255Z AUTO 17005KT 10SM OVC032 M06/M10 A2998 RMK AO2 T10651100
KMOP 111235Z AUTO 16004KT 10SM OVC032 M07/M10 A2998 RMK AO2 T10671101
KMOP 111215Z AUTO 15005KT 10SM OVC032 M07/M10 A2999 RMK AO2 T10681102
KMOP 111155Z AUTO 17005KT 10SM OVC032 M07/M10 A3000 RMK AO2 T10711104 11070 21115
KMOP 111135Z AUTO 16003KT 10SM OVC032 M07/M11 A3001 RMK AO2 T10721107
KMOP 111115Z AUTO 15003KT 10SM OVC034 M07/M11 A3000 RMK AO2 T10751111
KMOP 111055Z AUTO 00000KT 10SM OVC034 M08/M11 A2999 RMK AO2 T10771110
KMOP 111035Z AUTO 00000KT 10SM OVC034 M08/M11 A2999 RMK AO2 T10831110
KMOP 111015Z AUTO 00000KT 10SM OVC034 M09/M12 A2998 RMK AO2 T10911118
KMOP 110955Z AUTO 00000KT 10SM OVC034 M10/M12 A3000 RMK AO2 T10971121
KMOP 110935Z AUTO 00000KT 10SM OVC034 M11/M13 A3000 RMK AO2 T11071130
KMOP 110915Z AUTO 00000KT 10SM OVC034 M10/M12 A3001 RMK AO2 T11031124
KMOP 110855Z AUTO 00000KT 10SM OVC034 M11/M12 A3001 RMK AO2 T11081124
KMOP 110835Z AUTO 00000KT 10SM BKN034 M11/M13 A3002 RMK AO2 T11061126
KMOP 110816Z AUTO 00000KT 10SM SCT034 M11/M13 A3003 RMK AO2 T11111134
KMOP 110755Z AUTO 00000KT 10SM CLR M11/M14 A3002 RMK AO2 T11091138
KMOP 110735Z AUTO 00000KT 10SM CLR M09/M13 A3001 RMK AO2 T10901127
KMOP 110716Z AUTO 00000KT 10SM CLR M10/M12 A3001 RMK AO2 T10981124
KMOP 110655Z AUTO 00000KT 10SM CLR M09/M12 A3001 RMK AO2 T10881123
KMOP 110635Z AUTO 00000KT 10SM CLR M08/M12 A3001 RMK AO2 T10771121
KMOP 110616Z AUTO 00000KT 10SM CLR M08/M12 A3001 RMK AO2 T10811120
KMOP 110555Z AUTO 26003KT 10SM CLR M07/M12 A3000 RMK AO2 T10721125 11029 21072 410201072
KMOP 110535Z AUTO 31004KT 10SM CLR M06/M12 A3000 RMK AO2 T10621120
KMOP 110515Z AUTO 31004KT 10SM SCT037 M06/M11 A3001 RMK AO2 T10571114
KMOP 110455Z AUTO 32004KT 10SM SCT037 M05/M11 A3000 RMK AO2 T10531108
KMOP 110435Z AUTO 32004KT 10SM SCT043 M05/M11 A3000 RMK AO2 T10501106
KMOP 110415Z AUTO 31005KT 10SM SCT037 OVC045 M04/M09 A3000 RMK AO2 T10421090
KMOP 110355Z AUTO 33006KT 10SM SCT013 SCT023 BKN039 M04/M08 A2999 RMK AO2 T10371082
KMOP 110335Z AUTO 32004KT 10SM SCT022 SCT028 OVC043 M04/M07 A2999 RMK AO2 T10361070
KMOP 110315Z AUTO 34003KT 10SM -SN SCT011 BKN029 OVC043 M03/M06 A2998 RMK AO2 T10351065
KMOP 110255Z AUTO 33005KT 5SM -SN SCT008 BKN012 OVC017 M03/M06 A2997 RMK AO2 T10341063
KMOP 110235Z AUTO 33005KT 10SM -SN SCT008 OVC019 M03/M06 A2997 RMK AO2 T10301061
KMOP 110215Z AUTO 31004KT 10SM -SN SCT008 BKN023 BKN030 M03/M06 A2996 RMK AO2 T10301060
KMOP 110155Z AUTO 29004KT 10SM -SN SCT024 SCT031 BKN046 M03/M06 A2996 RMK AO2 T10301060
KMOP 110135Z AUTO 28006KT 10SM -SN SCT012 SCT016 OVC046 M03/M06 A2995 RMK AO2 T10301060
KMOP 110115Z AUTO 28004KT 10SM OVC044 M03/M06 A2994 RMK AO2 T10301060
KMOP 110055Z AUTO 28005KT 10SM OVC044 M03/M06 A2993 RMK AO2 T10301057
KMOP 110035Z AUTO 27005KT 10SM OVC047 M03/M06 A2993 RMK AO2 T10301056
KMOP 110015Z AUTO 27004KT 10SM BKN049 M03/M05 A2992 RMK AO2 T10301055
KMOP 102355Z AUTO 26004KT 10SM BKN049 M03/M05 A2991 RMK AO2 T10301055 11020 21030
KMOP 102335Z AUTO 27003KT 10SM SCT022 BKN049 M03/M05 A2989 RMK AO2 T10281054
KMOP 102315Z AUTO 28004KT 10SM -SN BKN020 OVC047 M03/M05 A2989 RMK AO2 T10261050
KMOP 102255Z AUTO 28004KT 10SM -SN OVC020 M02/M05 A2989 RMK AO2 T10251047
KMOP 102235Z AUTO 28004KT 10SM BKN018 OVC024 M02/M05 A2988 RMK AO2 T10251046
KMOP 102215Z AUTO 28003KT 10SM OVC018 M02/M04 A2987 RMK AO2 T10251045
KMOP 102155Z AUTO 00000KT 10SM SCT014 BKN021 M02/M04 A2986 RMK AO2 T10251045
KMOP 102135Z AUTO 29004KT 10SM SCT009 BKN012 OVC023 M02/M04 A2986 RMK AO2 T10241042
KMOP 102115Z AUTO 30003KT 4SM BR BKN009 OVC014 M02/M04 A2985 RMK AO2 T10231039
KMOP 102055Z AUTO 29006KT 3SM BR BKN008 OVC012 M02/M03 A2984 RMK AO2 T10211035
KMOP 102035Z AUTO 25003KT 2SM -SN OVC008 M02/M03 A2983 RMK AO2 T10231035
KMOP 102015Z AUTO 22004KT 1 3/4SM -SN OVC008 M02/M04 A2983 RMK AO2 T10251038
KMOP 101955Z AUTO 24005KT 2SM -SN OVC008 M02/M04 A2982 RMK AO2 T10231037
KMOP 101935Z AUTO 23006KT 1 3/4SM -SN OVC010 M02/M04 A2982 RMK AO2 T10251039
KMOP 101915Z AUTO 22007KT 2SM -SN OVC010 M02/M04 A2981 RMK AO2 T10231040
KMOP 101855Z AUTO 21005KT 2SM -SN OVC010 M02/M04 A2981 RMK AO2 T10211040
KMOP 101835Z AUTO 22004KT 2SM -SN OVC016 M02/M05 A2981 RMK AO2 T10211046
KMOP 101815Z AUTO 22004KT 4SM HZ OVC018 M02/M05 A2981 RMK AO2 T10221052
KMOP 101755Z AUTO 21005KT 10SM OVC020 M02/M06 A2981 RMK AO2 T10211056 11021 21045
KMOP 101735Z AUTO 21005KT 10SM OVC018 M02/M06 A2982 RMK AO2 T10231057
KMOP 101715Z AUTO 22006KT 10SM OVC016 M02/M06 A2982 RMK AO2 T10251058
KMOP 101655Z AUTO 22007KT 7SM -SN BKN018 OVC022 M02/M06 A2983 RMK AO2 T10251060
KMOP 101635Z AUTO 22004KT 10SM SCT020 SCT028 M02/M06 A2983 RMK AO2 T10251065
KMOP 101615Z AUTO 22007KT 10SM SCT016 BKN024 BKN030 M02/M07 A2984 RMK AO2 T10251067
KMOP 101555Z AUTO 23007KT 10SM BKN026 OVC046 M03/M07 A2985 RMK AO2 T10261068
KMOP 101535Z AUTO 24008KT 10SM OVC044 M03/M07 A2985 RMK AO2 T10291070
KMOP 101515Z AUTO 24007KT 10SM SCT024 OVC040 M03/M07 A2985 RMK AO2 T10311071
KMOP 101455Z AUTO 24005KT 10SM SCT024 OVC040 M03/M07 A2985 RMK AO2 T10351073
KMOP 101435Z AUTO 23006KT 10SM OVC040 M04/M07 A2985 RMK AO2 T10371074
KMOP 101415Z AUTO 23004KT 10SM OVC042 M04/M07 A2985 RMK AO2 T10401075
KMOP 101355Z AUTO 24004KT 10SM SCT018 SCT025 OVC042 M04/M08 A2986 RMK AO2 T10401076
KMOP 101335Z AUTO 24003KT 10SM BKN021 OVC042 M04/M08 A2986 RMK AO2 T10411076
KMOP 101315Z AUTO 23004KT 10SM SCT023 OVC044 M04/M08 A2986 RMK AO2 T10421077
KMOP 101255Z AUTO 25004KT 10SM -SN BKN009 OVC044 M04/M08 A2986 RMK AO2 T10431077
KMOP 101235Z AUTO 24008KT 7SM -SN BKN009 OVC014 M04/M08 A2985 RMK AO2 T10441078
KMOP 101215Z AUTO 25007KT 10SM -SN BKN010 OVC015 M04/M08 A2986 RMK AO2 T10451080
KMOP 101155Z AUTO 23008KT 7SM -SN BKN012 BKN021 M04/M08 A2985 RMK AO2 T10431082 11040 21043
KMOP 101135Z AUTO 24009KT 10SM SCT021 M04/M08 A2986 RMK AO2 T10421085
KMOP 101115Z AUTO 25009G14KT 10SM SCT025 M04/M09 A2986 RMK AO2 T10431087
KMOP 101055Z AUTO 25008KT 10SM BKN025 M04/M09 A2986 RMK AO2 T10431089
KMOP 101035Z AUTO 25007KT 10SM OVC027 M04/M09 A2986 RMK AO2 T10421090
KMOP 101015Z AUTO 25006KT 10SM OVC029 M04/M09 A2986 RMK AO2 T10421090
KMOP 100955Z AUTO 25009KT 10SM OVC029 M04/M09 A2986 RMK AO2 T10411091
KMOP 100935Z AUTO 26010KT 10SM BKN029 M04/M09 A2986 RMK AO2 T10421089
KMOP 100915Z AUTO 25011G16KT 10SM OVC029 M04/M09 A2986 RMK AO2 T10411089
KMOP 100855Z AUTO 26007G15KT 10SM BKN031 M04/M09 A2987 RMK AO2 T10401086
KMOP 100835Z AUTO 24007KT 10SM BKN031 M04/M08 A2987 RMK AO2 T10401078
KMOP 100815Z AUTO 24006KT 10SM SCT020 BKN033 M04/M08 A2988 RMK AO2 T10401077
KMOP 100755Z AUTO 25006KT 10SM OVC035 M04/M08 A2988 RMK AO2 T10401078
KMOP 100735Z AUTO 24004KT 10SM OVC037 M04/M07 A2988 RMK AO2 T10401075
KMOP 100715Z AUTO 24005KT 10SM OVC039 M04/M08 A2989 RMK AO2 T10401076
KMOP 100655Z AUTO 23004KT 10SM OVC041 M04/M08 A2989 RMK AO2 T10411077
KMOP 100635Z AUTO 23005KT 10SM OVC041 M04/M08 A2989 RMK AO2 T10411080
KMOP 100615Z AUTO 24004KT 10SM OVC043 M04/M08 A2990 RMK AO2 T10411081
KMOP 100555Z AUTO 26003KT 10SM OVC043 M04/M08 A2990 RMK AO2 T10401080 11039 21072 410121072
KMOP 100535Z AUTO 25003KT 10SM OVC043 M04/M08 A2991 RMK AO2 T10401079
KMOP 100515Z AUTO 26003KT 10SM OVC041 M04/M08 A2991 RMK AO2 T10401078
KMOP 100455Z AUTO 26003KT 10SM OVC041 M04/M08 A2992 RMK AO2 T10411076
KMOP 100435Z AUTO 25004KT 10SM OVC043 M05/M08 A2992 RMK AO2 T10461079
KMOP 100415Z AUTO 27003KT 10SM OVC046 M05/M08 A2992 RMK AO2 T10471081
KMOP 100355Z AUTO 28003KT 10SM OVC050 M05/M08 A2991 RMK AO2 T10501081
KMOP 100335Z AUTO 00000KT 10SM OVC055 M06/M08 A2991 RMK AO2 T10571085
KMOP 100315Z AUTO 25003KT 10SM OVC055 M06/M08 A2991 RMK AO2 T10571084